NCAR-RAP Real-Time Weather Data

Output produced by METARs form (16 August 2018  19:23 UTC)
found at http://weather.rap.ucar.edu/surface/
 
RJTF 160800Z 21010KT 170V250 9999 FEW020 SCT160 BKN/// 31/23 Q1004
RJTF 160700Z 20013KT 170V230 9999 FEW020 BKN160 BKN/// 30/23 Q1003
RJTF 160600Z 19011G21KT 160V220 9999 FEW020 BKN160 BKN/// 31/23 Q1003
RJTF 160500Z 19014G29KT 150V230 9999 FEW020 BKN160 BKN/// 31/23 Q1004
RJTF 160400Z 20014G24KT 160V220 9999 FEW020 SCT100 BKN170 31/23 Q1005
RJTF 160300Z 19011G23KT 9999 FEW015 SCT100 BKN/// 31/23 Q1005
RJTF 160200Z 20014KT 9999 -SHRA FEW015 SCT030 BKN100 31/23 Q1006
RJTF 160100Z 19014G26KT 160V230 9999 VCSH FEW020 SCT030 BKN100 31/24 Q1006
RJTF 160000Z 19014KT 150V230 9999 VCSH FEW020 SCT100 BKN/// 30/24 Q1007
RJTF 152330Z 19014KT 9999 FEW015 SCT050 BKN/// 30/24 Q1007
RJTF 150800Z 19015KT 160V220 9999 FEW030 BKN/// 31/24 Q1010
RJTF 150700Z 19013G24KT 160V230 9999 FEW030 BKN/// 31/24 Q1011
RJTF 150600Z 19015G25KT 160V220 9999 FEW030 FEW035CB BKN/// 32/24 Q1011
RJTF 150500Z 19014KT 150V220 9999 FEW030 FEW035CB BKN/// 32/24 Q1012
RJTF 150400Z 18011KT 140V230 9999 FEW030 FEW035CB BKN/// 33/24 Q1012
RJTF 150300Z 17012KT 140V200 9999 FEW030 BKN/// 33/24 Q1013
RJTF 150200Z 18011KT 150V210 9999 FEW030 FEW035TCU BKN/// 33/25 Q1013
RJTF 150100Z 20010KT 160V240 9999 FEW030 BKN/// 32/24 Q1014
RJTF 150000Z 19010KT 160V230 9999 FEW030 BKN/// 32/24 Q1014
RJTF 142330Z 20007KT 150V260 9999 FEW030 BKN/// 32/23 Q1014
RJTF 140800Z 17011KT 9999 FEW030 BKN/// 32/24 Q1011